sensor_id;sensor_type;location;lat;lon;timestamp;P1;durP1;ratioP1;P2;durP2;ratioP2
66175;SDS011;52977;44.816;20.538;2023-03-14T00:02:10;12.52;;;5.22;;
66175;SDS011;52977;44.816;20.538;2023-03-14T00:04:36;11.40;;;4.57;;
66175;SDS011;52977;44.816;20.538;2023-03-14T00:07:02;10.27;;;4.97;;
66175;SDS011;52977;44.816;20.538;2023-03-14T00:09:29;11.52;;;4.85;;
66175;SDS011;52977;44.816;20.538;2023-03-14T00:11:55;11.35;;;5.00;;
66175;SDS011;52977;44.816;20.538;2023-03-14T00:14:22;9.77;;;5.05;;
66175;SDS011;52977;44.816;20.538;2023-03-14T00:16:48;13.45;;;4.82;;
66175;SDS011;52977;44.816;20.538;2023-03-14T00:19:14;9.73;;;4.63;;
66175;SDS011;52977;44.816;20.538;2023-03-14T00:21:40;11.05;;;4.57;;
66175;SDS011;52977;44.816;20.538;2023-03-14T00:24:06;11.07;;;4.47;;
66175;SDS011;52977;44.816;20.538;2023-03-14T00:26:33;13.90;;;4.80;;
66175;SDS011;52977;44.816;20.538;2023-03-14T00:28:59;10.95;;;4.70;;
66175;SDS011;52977;44.816;20.538;2023-03-14T00:31:25;10.32;;;4.40;;
66175;SDS011;52977;44.816;20.538;2023-03-14T00:33:52;9.98;;;4.72;;
66175;SDS011;52977;44.816;20.538;2023-03-14T00:36:19;12.00;;;5.07;;
66175;SDS011;52977;44.816;20.538;2023-03-14T00:38:47;11.85;;;4.60;;
66175;SDS011;52977;44.816;20.538;2023-03-14T00:41:16;8.80;;;4.63;;
66175;SDS011;52977;44.816;20.538;2023-03-14T00:43:44;11.35;;;4.95;;
66175;SDS011;52977;44.816;20.538;2023-03-14T00:46:11;9.48;;;4.57;;
66175;SDS011;52977;44.816;20.538;2023-03-14T00:48:38;11.30;;;4.75;;
66175;SDS011;52977;44.816;20.538;2023-03-14T00:51:05;10.18;;;4.45;;
66175;SDS011;52977;44.816;20.538;2023-03-14T00:53:37;10.30;;;4.40;;
66175;SDS011;52977;44.816;20.538;2023-03-14T00:56:05;9.80;;;4.68;;
66175;SDS011;52977;44.816;20.538;2023-03-14T00:58:33;10.02;;;4.75;;
66175;SDS011;52977;44.816;20.538;2023-03-14T01:01:04;11.75;;;4.82;;
66175;SDS011;52977;44.816;20.538;2023-03-14T01:03:41;10.13;;;4.65;;
66175;SDS011;52977;44.816;20.538;2023-03-14T01:06:17;11.23;;;4.38;;
66175;SDS011;52977;44.816;20.538;2023-03-14T01:08:48;9.63;;;4.40;;
66175;SDS011;52977;44.816;20.538;2023-03-14T01:11:15;11.63;;;4.93;;
66175;SDS011;52977;44.816;20.538;2023-03-14T01:13:43;9.93;;;4.95;;
66175;SDS011;52977;44.816;20.538;2023-03-14T01:16:10;11.77;;;4.90;;
66175;SDS011;52977;44.816;20.538;2023-03-14T01:18:39;9.18;;;4.70;;
66175;SDS011;52977;44.816;20.538;2023-03-14T01:21:16;9.52;;;4.50;;
66175;SDS011;52977;44.816;20.538;2023-03-14T01:23:49;10.05;;;4.75;;
66175;SDS011;52977;44.816;20.538;2023-03-14T01:26:18;8.02;;;3.90;;
66175;SDS011;52977;44.816;20.538;2023-03-14T01:28:47;12.82;;;4.53;;
66175;SDS011;52977;44.816;20.538;2023-03-14T01:31:15;12.00;;;5.00;;
66175;SDS011;52977;44.816;20.538;2023-03-14T01:33:42;8.98;;;4.65;;
66175;SDS011;52977;44.816;20.538;2023-03-14T01:36:09;12.38;;;5.25;;
66175;SDS011;52977;44.816;20.538;2023-03-14T01:38:37;9.75;;;4.25;;
66175;SDS011;52977;44.816;20.538;2023-03-14T01:41:08;12.13;;;4.70;;
66175;SDS011;52977;44.816;20.538;2023-03-14T01:43:37;10.68;;;4.28;;
66175;SDS011;52977;44.816;20.538;2023-03-14T01:48:34;11.52;;;4.43;;
66175;SDS011;52977;44.816;20.538;2023-03-14T01:51:02;10.02;;;4.57;;
66175;SDS011;52977;44.816;20.538;2023-03-14T01:53:31;10.80;;;4.60;;
66175;SDS011;52977;44.816;20.538;2023-03-14T01:55:58;11.73;;;5.05;;
66175;SDS011;52977;44.816;20.538;2023-03-14T01:58:25;10.55;;;5.05;;
66175;SDS011;52977;44.816;20.538;2023-03-14T02:00:55;12.60;;;4.18;;
66175;SDS011;52977;44.816;20.538;2023-03-14T02:03:23;11.73;;;4.80;;
66175;SDS011;52977;44.816;20.538;2023-03-14T02:05:51;10.90;;;4.60;;
66175;SDS011;52977;44.816;20.538;2023-03-14T02:08:22;12.10;;;4.90;;
66175;SDS011;52977;44.816;20.538;2023-03-14T02:10:53;10.90;;;4.85;;
66175;SDS011;52977;44.816;20.538;2023-03-14T02:13:34;11.75;;;4.53;;
66175;SDS011;52977;44.816;20.538;2023-03-14T02:16:23;10.90;;;4.88;;
66175;SDS011;52977;44.816;20.538;2023-03-14T02:19:07;7.75;;;4.03;;
66175;SDS011;52977;44.816;20.538;2023-03-14T02:22:02;8.63;;;4.68;;
66175;SDS011;52977;44.816;20.538;2023-03-14T02:27:35;12.83;;;4.90;;
66175;SDS011;52977;44.816;20.538;2023-03-14T02:30:04;11.27;;;4.47;;
66175;SDS011;52977;44.816;20.538;2023-03-14T02:32:33;10.73;;;4.07;;
66175;SDS011;52977;44.816;20.538;2023-03-14T02:35:03;9.15;;;4.05;;
66175;SDS011;52977;44.816;20.538;2023-03-14T02:37:39;9.70;;;4.05;;
66175;SDS011;52977;44.816;20.538;2023-03-14T02:40:20;14.00;;;4.47;;
66175;SDS011;52977;44.816;20.538;2023-03-14T02:42:49;7.53;;;4.10;;
66175;SDS011;52977;44.816;20.538;2023-03-14T02:47:44;10.88;;;4.55;;
66175;SDS011;52977;44.816;20.538;2023-03-14T02:50:18;9.07;;;4.50;;
66175;SDS011;52977;44.816;20.538;2023-03-14T02:52:47;14.23;;;4.40;;
66175;SDS011;52977;44.816;20.538;2023-03-14T02:55:13;9.43;;;4.13;;
66175;SDS011;52977;44.816;20.538;2023-03-14T02:57:42;10.65;;;4.35;;
66175;SDS011;52977;44.816;20.538;2023-03-14T03:00:08;10.20;;;4.47;;
66175;SDS011;52977;44.816;20.538;2023-03-14T03:02:36;9.23;;;4.28;;
66175;SDS011;52977;44.816;20.538;2023-03-14T03:05:02;9.60;;;4.03;;
66175;SDS011;52977;44.816;20.538;2023-03-14T03:07:27;9.20;;;4.78;;
66175;SDS011;52977;44.816;20.538;2023-03-14T03:09:55;10.15;;;4.32;;
66175;SDS011;52977;44.816;20.538;2023-03-14T03:12:20;9.23;;;4.10;;
66175;SDS011;52977;44.816;20.538;2023-03-14T03:14:46;8.60;;;3.75;;
66175;SDS011;52977;44.816;20.538;2023-03-14T03:17:14;8.65;;;3.92;;
66175;SDS011;52977;44.816;20.538;2023-03-14T03:19:40;7.97;;;4.05;;
66175;SDS011;52977;44.816;20.538;2023-03-14T03:22:06;8.05;;;3.78;;
66175;SDS011;52977;44.816;20.538;2023-03-14T03:24:32;9.77;;;4.07;;
66175;SDS011;52977;44.816;20.538;2023-03-14T03:27:00;11.88;;;4.63;;
66175;SDS011;52977;44.816;20.538;2023-03-14T03:29:27;8.70;;;4.40;;
66175;SDS011;52977;44.816;20.538;2023-03-14T03:31:53;10.20;;;4.50;;
66175;SDS011;52977;44.816;20.538;2023-03-14T03:34:19;10.15;;;4.15;;
66175;SDS011;52977;44.816;20.538;2023-03-14T03:36:49;11.85;;;4.45;;
66175;SDS011;52977;44.816;20.538;2023-03-14T03:39:15;9.55;;;4.32;;
66175;SDS011;52977;44.816;20.538;2023-03-14T03:41:41;8.52;;;4.57;;
66175;SDS011;52977;44.816;20.538;2023-03-14T03:44:07;9.35;;;4.55;;
66175;SDS011;52977;44.816;20.538;2023-03-14T03:46:33;8.15;;;3.70;;
66175;SDS011;52977;44.816;20.538;2023-03-14T03:48:59;8.57;;;4.18;;
66175;SDS011;52977;44.816;20.538;2023-03-14T03:51:27;11.27;;;3.97;;
66175;SDS011;52977;44.816;20.538;2023-03-14T03:53:52;11.15;;;4.40;;
66175;SDS011;52977;44.816;20.538;2023-03-14T03:56:25;10.68;;;4.38;;
66175;SDS011;52977;44.816;20.538;2023-03-14T03:58:51;11.77;;;4.90;;
66175;SDS011;52977;44.816;20.538;2023-03-14T04:01:17;10.48;;;4.88;;
66175;SDS011;52977;44.816;20.538;2023-03-14T04:03:46;11.30;;;4.18;;
66175;SDS011;52977;44.816;20.538;2023-03-14T04:06:12;10.07;;;4.60;;
66175;SDS011;52977;44.816;20.538;2023-03-14T04:08:39;9.40;;;4.80;;
66175;SDS011;52977;44.816;20.538;2023-03-14T04:11:09;11.32;;;5.13;;
66175;SDS011;52977;44.816;20.538;2023-03-14T04:13:53;12.07;;;4.38;;
66175;SDS011;52977;44.816;20.538;2023-03-14T04:16:20;9.57;;;4.38;;
66175;SDS011;52977;44.816;20.538;2023-03-14T04:18:48;9.98;;;4.22;;
66175;SDS011;52977;44.816;20.538;2023-03-14T04:21:15;9.85;;;4.72;;
66175;SDS011;52977;44.816;20.538;2023-03-14T04:23:45;11.73;;;4.82;;
66175;SDS011;52977;44.816;20.538;2023-03-14T04:26:14;10.35;;;4.22;;
66175;SDS011;52977;44.816;20.538;2023-03-14T04:28:40;11.38;;;4.53;;
66175;SDS011;52977;44.816;20.538;2023-03-14T04:31:10;10.07;;;4.40;;
66175;SDS011;52977;44.816;20.538;2023-03-14T04:33:38;11.13;;;4.50;;
66175;SDS011;52977;44.816;20.538;2023-03-14T04:36:05;9.23;;;4.10;;
66175;SDS011;52977;44.816;20.538;2023-03-14T04:38:31;9.02;;;4.32;;
66175;SDS011;52977;44.816;20.538;2023-03-14T04:40:58;11.07;;;4.65;;
66175;SDS011;52977;44.816;20.538;2023-03-14T04:43:30;13.93;;;4.90;;
66175;SDS011;52977;44.816;20.538;2023-03-14T04:46:02;9.32;;;4.65;;
66175;SDS011;52977;44.816;20.538;2023-03-14T04:48:29;9.82;;;3.95;;
66175;SDS011;52977;44.816;20.538;2023-03-14T04:50:56;8.48;;;4.40;;
66175;SDS011;52977;44.816;20.538;2023-03-14T04:53:22;15.93;;;4.80;;
66175;SDS011;52977;44.816;20.538;2023-03-14T04:55:53;12.88;;;4.95;;
66175;SDS011;52977;44.816;20.538;2023-03-14T04:58:22;12.02;;;5.03;;
66175;SDS011;52977;44.816;20.538;2023-03-14T05:00:50;11.90;;;4.78;;
66175;SDS011;52977;44.816;20.538;2023-03-14T05:03:35;10.82;;;4.15;;
66175;SDS011;52977;44.816;20.538;2023-03-14T05:06:13;9.88;;;4.47;;
66175;SDS011;52977;44.816;20.538;2023-03-14T05:08:58;8.77;;;4.45;;
66175;SDS011;52977;44.816;20.538;2023-03-14T05:11:42;10.48;;;4.93;;
66175;SDS011;52977;44.816;20.538;2023-03-14T05:14:37;11.80;;;4.65;;
66175;SDS011;52977;44.816;20.538;2023-03-14T05:17:22;11.48;;;4.68;;
66175;SDS011;52977;44.816;20.538;2023-03-14T05:20:14;10.27;;;4.18;;
66175;SDS011;52977;44.816;20.538;2023-03-14T05:22:56;11.30;;;4.68;;
66175;SDS011;52977;44.816;20.538;2023-03-14T05:25:42;11.60;;;4.53;;
66175;SDS011;52977;44.816;20.538;2023-03-14T05:28:17;12.80;;;4.13;;
66175;SDS011;52977;44.816;20.538;2023-03-14T05:31:07;9.50;;;4.68;;
66175;SDS011;52977;44.816;20.538;2023-03-14T05:33:45;8.48;;;4.30;;
66175;SDS011;52977;44.816;20.538;2023-03-14T05:36:30;10.60;;;4.63;;
66175;SDS011;52977;44.816;20.538;2023-03-14T05:39:16;11.93;;;5.10;;
66175;SDS011;52977;44.816;20.538;2023-03-14T05:42:03;9.73;;;4.10;;
66175;SDS011;52977;44.816;20.538;2023-03-14T05:44:55;11.95;;;5.25;;
66175;SDS011;52977;44.816;20.538;2023-03-14T05:48:00;11.27;;;4.80;;
66175;SDS011;52977;44.816;20.538;2023-03-14T05:50:56;11.05;;;4.95;;
66175;SDS011;52977;44.816;20.538;2023-03-14T05:53:46;12.25;;;4.63;;
66175;SDS011;52977;44.816;20.538;2023-03-14T05:56:32;9.00;;;3.92;;
66175;SDS011;52977;44.816;20.538;2023-03-14T05:59:24;11.52;;;4.65;;
66175;SDS011;52977;44.816;20.538;2023-03-14T06:01:59;11.57;;;4.70;;
66175;SDS011;52977;44.816;20.538;2023-03-14T06:04:28;11.13;;;4.45;;
66175;SDS011;52977;44.816;20.538;2023-03-14T06:06:57;13.98;;;5.20;;
66175;SDS011;52977;44.816;20.538;2023-03-14T06:09:23;13.02;;;4.70;;
66175;SDS011;52977;44.816;20.538;2023-03-14T06:11:51;9.27;;;4.85;;
66175;SDS011;52977;44.816;20.538;2023-03-14T06:14:17;10.50;;;4.40;;
66175;SDS011;52977;44.816;20.538;2023-03-14T06:16:46;10.00;;;4.30;;
66175;SDS011;52977;44.816;20.538;2023-03-14T06:19:16;11.20;;;4.93;;
66175;SDS011;52977;44.816;20.538;2023-03-14T06:21:42;12.13;;;4.93;;
66175;SDS011;52977;44.816;20.538;2023-03-14T06:24:08;11.75;;;4.63;;
66175;SDS011;52977;44.816;20.538;2023-03-14T06:26:40;10.32;;;4.55;;
66175;SDS011;52977;44.816;20.538;2023-03-14T06:29:08;9.77;;;4.43;;
66175;SDS011;52977;44.816;20.538;2023-03-14T06:31:34;8.50;;;4.40;;
66175;SDS011;52977;44.816;20.538;2023-03-14T06:34:04;9.32;;;4.38;;
66175;SDS011;52977;44.816;20.538;2023-03-14T06:36:30;11.43;;;4.88;;
66175;SDS011;52977;44.816;20.538;2023-03-14T06:38:57;10.73;;;5.20;;
66175;SDS011;52977;44.816;20.538;2023-03-14T06:41:25;11.00;;;4.47;;
66175;SDS011;52977;44.816;20.538;2023-03-14T06:43:52;8.57;;;4.10;;
66175;SDS011;52977;44.816;20.538;2023-03-14T06:46:19;10.63;;;4.80;;
66175;SDS011;52977;44.816;20.538;2023-03-14T06:48:46;12.75;;;4.45;;
66175;SDS011;52977;44.816;20.538;2023-03-14T06:51:13;9.52;;;4.18;;
66175;SDS011;52977;44.816;20.538;2023-03-14T06:53:39;10.85;;;4.32;;
66175;SDS011;52977;44.816;20.538;2023-03-14T06:56:06;12.82;;;4.20;;
66175;SDS011;52977;44.816;20.538;2023-03-14T06:58:33;8.88;;;4.20;;
66175;SDS011;52977;44.816;20.538;2023-03-14T07:01:02;10.98;;;3.90;;
66175;SDS011;52977;44.816;20.538;2023-03-14T07:03:35;11.55;;;4.50;;
66175;SDS011;52977;44.816;20.538;2023-03-14T07:06:03;7.90;;;4.05;;
66175;SDS011;52977;44.816;20.538;2023-03-14T07:08:31;14.07;;;3.97;;
66175;SDS011;52977;44.816;20.538;2023-03-14T07:10:59;11.75;;;4.50;;
66175;SDS011;52977;44.816;20.538;2023-03-14T07:13:26;10.13;;;4.55;;
66175;SDS011;52977;44.816;20.538;2023-03-14T07:16:01;10.98;;;4.63;;
66175;SDS011;52977;44.816;20.538;2023-03-14T07:18:27;10.07;;;4.47;;
66175;SDS011;52977;44.816;20.538;2023-03-14T07:20:54;11.52;;;4.72;;
66175;SDS011;52977;44.816;20.538;2023-03-14T07:23:21;12.48;;;4.57;;
66175;SDS011;52977;44.816;20.538;2023-03-14T07:25:48;8.82;;;4.30;;
66175;SDS011;52977;44.816;20.538;2023-03-14T07:28:17;8.95;;;4.47;;
66175;SDS011;52977;44.816;20.538;2023-03-14T07:30:48;13.50;;;4.10;;
66175;SDS011;52977;44.816;20.538;2023-03-14T07:33:19;8.15;;;4.10;;
66175;SDS011;52977;44.816;20.538;2023-03-14T07:35:49;16.30;;;5.00;;
66175;SDS011;52977;44.816;20.538;2023-03-14T07:38:15;10.85;;;4.53;;
66175;SDS011;52977;44.816;20.538;2023-03-14T07:41:01;12.50;;;3.67;;
66175;SDS011;52977;44.816;20.538;2023-03-14T07:43:32;9.75;;;3.50;;
66175;SDS011;52977;44.816;20.538;2023-03-14T07:45:59;8.88;;;3.88;;
66175;SDS011;52977;44.816;20.538;2023-03-14T07:48:25;9.98;;;4.03;;
66175;SDS011;52977;44.816;20.538;2023-03-14T07:50:52;11.45;;;4.30;;
66175;SDS011;52977;44.816;20.538;2023-03-14T07:53:19;14.18;;;3.70;;
66175;SDS011;52977;44.816;20.538;2023-03-14T07:55:45;9.07;;;3.78;;
66175;SDS011;52977;44.816;20.538;2023-03-14T07:58:11;8.10;;;3.58;;
66175;SDS011;52977;44.816;20.538;2023-03-14T08:00:37;7.75;;;3.47;;
66175;SDS011;52977;44.816;20.538;2023-03-14T08:03:03;8.60;;;3.60;;
66175;SDS011;52977;44.816;20.538;2023-03-14T08:05:29;14.65;;;3.60;;
66175;SDS011;52977;44.816;20.538;2023-03-14T08:07:56;10.00;;;3.63;;
66175;SDS011;52977;44.816;20.538;2023-03-14T08:10:22;6.82;;;3.28;;
66175;SDS011;52977;44.816;20.538;2023-03-14T08:12:49;9.23;;;3.63;;
66175;SDS011;52977;44.816;20.538;2023-03-14T08:15:15;9.05;;;3.10;;
66175;SDS011;52977;44.816;20.538;2023-03-14T08:17:41;7.45;;;2.97;;
66175;SDS011;52977;44.816;20.538;2023-03-14T08:20:06;13.45;;;4.30;;
66175;SDS011;52977;44.816;20.538;2023-03-14T08:22:34;8.35;;;3.35;;
66175;SDS011;52977;44.816;20.538;2023-03-14T08:25:05;8.90;;;3.28;;
66175;SDS011;52977;44.816;20.538;2023-03-14T08:27:31;7.28;;;3.20;;
66175;SDS011;52977;44.816;20.538;2023-03-14T08:29:57;7.13;;;3.25;;
66175;SDS011;52977;44.816;20.538;2023-03-14T08:32:23;6.68;;;3.05;;
66175;SDS011;52977;44.816;20.538;2023-03-14T08:34:49;7.10;;;3.20;;
66175;SDS011;52977;44.816;20.538;2023-03-14T08:37:15;9.98;;;3.40;;
66175;SDS011;52977;44.816;20.538;2023-03-14T08:39:42;8.00;;;3.63;;
66175;SDS011;52977;44.816;20.538;2023-03-14T08:42:08;8.20;;;3.30;;
66175;SDS011;52977;44.816;20.538;2023-03-14T08:44:34;8.13;;;3.60;;
66175;SDS011;52977;44.816;20.538;2023-03-14T08:47:00;10.07;;;3.70;;
66175;SDS011;52977;44.816;20.538;2023-03-14T08:49:26;8.80;;;3.10;;
66175;SDS011;52977;44.816;20.538;2023-03-14T08:51:52;10.45;;;3.22;;
66175;SDS011;52977;44.816;20.538;2023-03-14T08:54:18;8.95;;;3.17;;
66175;SDS011;52977;44.816;20.538;2023-03-14T08:56:44;8.40;;;3.15;;
66175;SDS011;52977;44.816;20.538;2023-03-14T08:59:11;8.10;;;3.00;;
66175;SDS011;52977;44.816;20.538;2023-03-14T09:01:37;7.32;;;3.25;;
66175;SDS011;52977;44.816;20.538;2023-03-14T09:04:03;9.23;;;3.83;;
66175;SDS011;52977;44.816;20.538;2023-03-14T09:06:29;13.07;;;3.95;;
66175;SDS011;52977;44.816;20.538;2023-03-14T09:08:55;8.77;;;3.80;;
66175;SDS011;52977;44.816;20.538;2023-03-14T09:11:22;9.77;;;3.35;;
66175;SDS011;52977;44.816;20.538;2023-03-14T09:13:48;10.82;;;3.22;;
66175;SDS011;52977;44.816;20.538;2023-03-14T09:16:14;8.43;;;3.35;;
66175;SDS011;52977;44.816;20.538;2023-03-14T09:18:40;8.13;;;3.70;;
66175;SDS011;52977;44.816;20.538;2023-03-14T09:21:07;9.98;;;3.40;;
66175;SDS011;52977;44.816;20.538;2023-03-14T09:23:33;10.57;;;3.80;;
66175;SDS011;52977;44.816;20.538;2023-03-14T09:25:59;7.18;;;3.10;;
66175;SDS011;52977;44.816;20.538;2023-03-14T09:28:26;9.07;;;3.38;;
66175;SDS011;52977;44.816;20.538;2023-03-14T09:30:53;10.25;;;3.50;;
66175;SDS011;52977;44.816;20.538;2023-03-14T09:33:20;9.48;;;3.47;;
66175;SDS011;52977;44.816;20.538;2023-03-14T09:35:46;8.57;;;3.35;;
66175;SDS011;52977;44.816;20.538;2023-03-14T09:38:12;9.43;;;3.25;;
66175;SDS011;52977;44.816;20.538;2023-03-14T09:40:38;9.63;;;4.00;;
66175;SDS011;52977;44.816;20.538;2023-03-14T09:43:05;8.07;;;3.45;;
66175;SDS011;52977;44.816;20.538;2023-03-14T09:45:33;9.85;;;4.50;;
66175;SDS011;52977;44.816;20.538;2023-03-14T09:48:02;9.43;;;4.10;;
66175;SDS011;52977;44.816;20.538;2023-03-14T09:50:37;9.52;;;3.72;;
66175;SDS011;52977;44.816;20.538;2023-03-14T09:53:07;9.55;;;3.55;;
66175;SDS011;52977;44.816;20.538;2023-03-14T09:55:38;8.55;;;3.45;;
66175;SDS011;52977;44.816;20.538;2023-03-14T09:58:09;8.45;;;3.38;;
66175;SDS011;52977;44.816;20.538;2023-03-14T10:00:38;9.88;;;3.28;;
66175;SDS011;52977;44.816;20.538;2023-03-14T10:05:39;8.93;;;3.20;;
66175;SDS011;52977;44.816;20.538;2023-03-14T10:08:09;8.82;;;3.55;;
66175;SDS011;52977;44.816;20.538;2023-03-14T10:10:36;7.63;;;3.15;;
66175;SDS011;52977;44.816;20.538;2023-03-14T10:13:22;7.35;;;3.25;;
66175;SDS011;52977;44.816;20.538;2023-03-14T10:15:55;6.88;;;3.65;;
66175;SDS011;52977;44.816;20.538;2023-03-14T10:18:27;9.00;;;3.42;;
66175;SDS011;52977;44.816;20.538;2023-03-14T10:23:44;10.07;;;3.22;;
66175;SDS011;52977;44.816;20.538;2023-03-14T10:26:15;13.63;;;3.80;;
66175;SDS011;52977;44.816;20.538;2023-03-14T10:28:44;9.50;;;3.72;;
66175;SDS011;52977;44.816;20.538;2023-03-14T10:31:17;9.95;;;3.50;;
66175;SDS011;52977;44.816;20.538;2023-03-14T10:33:56;8.98;;;3.47;;
66175;SDS011;52977;44.816;20.538;2023-03-14T10:36:27;10.18;;;3.45;;
66175;SDS011;52977;44.816;20.538;2023-03-14T10:41:54;9.75;;;3.40;;
66175;SDS011;52977;44.816;20.538;2023-03-14T10:44:28;9.30;;;3.10;;
66175;SDS011;52977;44.816;20.538;2023-03-14T10:46:59;9.82;;;3.50;;
66175;SDS011;52977;44.816;20.538;2023-03-14T10:49:29;8.35;;;3.50;;
66175;SDS011;52977;44.816;20.538;2023-03-14T10:52:00;8.10;;;3.03;;
66175;SDS011;52977;44.816;20.538;2023-03-14T10:54:49;7.85;;;2.95;;
66175;SDS011;52977;44.816;20.538;2023-03-14T10:57:22;7.65;;;3.38;;
66175;SDS011;52977;44.816;20.538;2023-03-14T10:59:48;7.00;;;2.92;;
66175;SDS011;52977;44.816;20.538;2023-03-14T11:08:09;6.93;;;3.10;;
66175;SDS011;52977;44.816;20.538;2023-03-14T11:10:41;9.55;;;3.10;;
66175;SDS011;52977;44.816;20.538;2023-03-14T11:13:15;5.05;;;2.45;;
66175;SDS011;52977;44.816;20.538;2023-03-14T11:28:50;7.85;;;3.10;;
66175;SDS011;52977;44.816;20.538;2023-03-14T11:31:27;7.70;;;2.80;;
66175;SDS011;52977;44.816;20.538;2023-03-14T11:34:06;8.75;;;3.00;;
66175;SDS011;52977;44.816;20.538;2023-03-14T11:36:41;9.05;;;2.92;;
66175;SDS011;52977;44.816;20.538;2023-03-14T11:39:17;7.68;;;2.70;;
66175;SDS011;52977;44.816;20.538;2023-03-14T11:41:46;7.47;;;3.25;;
66175;SDS011;52977;44.816;20.538;2023-03-14T11:44:20;9.13;;;3.17;;
66175;SDS011;52977;44.816;20.538;2023-03-14T11:47:02;6.20;;;2.55;;
66175;SDS011;52977;44.816;20.538;2023-03-14T11:52:08;8.32;;;2.72;;
66175;SDS011;52977;44.816;20.538;2023-03-14T11:55:27;6.78;;;3.08;;
66175;SDS011;52977;44.816;20.538;2023-03-14T11:57:32;8.05;;;3.17;;
66175;SDS011;52977;44.816;20.538;2023-03-14T12:05:21;9.02;;;3.10;;
66175;SDS011;52977;44.816;20.538;2023-03-14T12:10:39;6.20;;;2.90;;
66175;SDS011;52977;44.816;20.538;2023-03-14T12:13:12;6.35;;;2.67;;
66175;SDS011;52977;44.816;20.538;2023-03-14T12:15:40;9.07;;;3.00;;
66175;SDS011;52977;44.816;20.538;2023-03-14T12:18:35;6.45;;;2.88;;
66175;SDS011;52977;44.816;20.538;2023-03-14T12:21:04;6.75;;;3.00;;
66175;SDS011;52977;44.816;20.538;2023-03-14T12:26:23;6.85;;;2.50;;
66175;SDS011;52977;44.816;20.538;2023-03-14T12:28:51;6.75;;;2.72;;
66175;SDS011;52977;44.816;20.538;2023-03-14T12:31:36;5.85;;;2.72;;
66175;SDS011;52977;44.816;20.538;2023-03-14T12:34:04;7.72;;;2.70;;
66175;SDS011;52977;44.816;20.538;2023-03-14T12:39:37;7.10;;;2.90;;
66175;SDS011;52977;44.816;20.538;2023-03-14T12:44:42;7.38;;;3.00;;
66175;SDS011;52977;44.816;20.538;2023-03-14T12:49:47;5.40;;;2.80;;
66175;SDS011;52977;44.816;20.538;2023-03-14T12:52:16;6.85;;;2.63;;
66175;SDS011;52977;44.816;20.538;2023-03-14T12:57:26;7.03;;;2.90;;
66175;SDS011;52977;44.816;20.538;2023-03-14T13:00:22;7.03;;;2.70;;
66175;SDS011;52977;44.816;20.538;2023-03-14T13:03:11;6.18;;;2.85;;
66175;SDS011;52977;44.816;20.538;2023-03-14T13:05:51;8.18;;;2.55;;
66175;SDS011;52977;44.816;20.538;2023-03-14T13:08:32;8.10;;;3.03;;
66175;SDS011;52977;44.816;20.538;2023-03-14T13:11:01;7.65;;;3.08;;
66175;SDS011;52977;44.816;20.538;2023-03-14T13:13:31;5.35;;;2.67;;
66175;SDS011;52977;44.816;20.538;2023-03-14T13:16:01;6.28;;;2.90;;
66175;SDS011;52977;44.816;20.538;2023-03-14T13:18:35;14.95;;;3.10;;
66175;SDS011;52977;44.816;20.538;2023-03-14T13:21:05;7.63;;;2.75;;
66175;SDS011;52977;44.816;20.538;2023-03-14T13:23:37;6.00;;;2.80;;
66175;SDS011;52977;44.816;20.538;2023-03-14T13:26:05;8.98;;;3.58;;
66175;SDS011;52977;44.816;20.538;2023-03-14T13:28:38;9.40;;;2.75;;
66175;SDS011;52977;44.816;20.538;2023-03-14T13:31:05;6.63;;;3.25;;
66175;SDS011;52977;44.816;20.538;2023-03-14T13:33:32;5.75;;;2.72;;
66175;SDS011;52977;44.816;20.538;2023-03-14T13:36:04;5.22;;;2.60;;
66175;SDS011;52977;44.816;20.538;2023-03-14T13:38:32;6.43;;;2.97;;
66175;SDS011;52977;44.816;20.538;2023-03-14T13:41:03;7.95;;;3.15;;
66175;SDS011;52977;44.816;20.538;2023-03-14T13:43:32;8.15;;;2.90;;
66175;SDS011;52977;44.816;20.538;2023-03-14T13:46:12;6.88;;;2.80;;
66175;SDS011;52977;44.816;20.538;2023-03-14T13:48:55;7.45;;;2.50;;
66175;SDS011;52977;44.816;20.538;2023-03-14T13:51:23;7.18;;;2.53;;
66175;SDS011;52977;44.816;20.538;2023-03-14T13:53:53;7.18;;;3.40;;
66175;SDS011;52977;44.816;20.538;2023-03-14T13:56:21;5.78;;;2.63;;
66175;SDS011;52977;44.816;20.538;2023-03-14T13:58:49;6.95;;;3.42;;
66175;SDS011;52977;44.816;20.538;2023-03-14T14:01:23;8.32;;;2.75;;
66175;SDS011;52977;44.816;20.538;2023-03-14T14:03:58;6.65;;;3.15;;
66175;SDS011;52977;44.816;20.538;2023-03-14T14:09:11;7.18;;;2.40;;
66175;SDS011;52977;44.816;20.538;2023-03-14T14:11:47;6.72;;;3.08;;
66175;SDS011;52977;44.816;20.538;2023-03-14T14:17:04;12.05;;;2.90;;
66175;SDS011;52977;44.816;20.538;2023-03-14T14:19:34;8.13;;;3.17;;
66175;SDS011;52977;44.816;20.538;2023-03-14T14:22:02;7.68;;;3.03;;
66175;SDS011;52977;44.816;20.538;2023-03-14T14:24:31;9.55;;;3.30;;
66175;SDS011;52977;44.816;20.538;2023-03-14T14:26:59;6.45;;;3.30;;
66175;SDS011;52977;44.816;20.538;2023-03-14T14:29:33;5.90;;;2.88;;
66175;SDS011;52977;44.816;20.538;2023-03-14T14:32:00;11.43;;;3.30;;
66175;SDS011;52977;44.816;20.538;2023-03-14T14:34:26;6.78;;;2.78;;
66175;SDS011;52977;44.816;20.538;2023-03-14T14:36:52;7.85;;;3.28;;
66175;SDS011;52977;44.816;20.538;2023-03-14T14:39:25;8.02;;;2.90;;
66175;SDS011;52977;44.816;20.538;2023-03-14T14:41:54;7.75;;;3.05;;
66175;SDS011;52977;44.816;20.538;2023-03-14T14:44:30;7.22;;;2.90;;
66175;SDS011;52977;44.816;20.538;2023-03-14T14:47:01;5.95;;;2.80;;
66175;SDS011;52977;44.816;20.538;2023-03-14T14:49:30;8.07;;;3.20;;
66175;SDS011;52977;44.816;20.538;2023-03-14T14:52:08;6.70;;;2.90;;
66175;SDS011;52977;44.816;20.538;2023-03-14T14:54:42;11.90;;;3.90;;
66175;SDS011;52977;44.816;20.538;2023-03-14T14:57:22;10.27;;;3.58;;
66175;SDS011;52977;44.816;20.538;2023-03-14T14:59:50;11.52;;;3.50;;
66175;SDS011;52977;44.816;20.538;2023-03-14T15:04:54;8.95;;;3.60;;
66175;SDS011;52977;44.816;20.538;2023-03-14T15:07:19;7.40;;;3.67;;
66175;SDS011;52977;44.816;20.538;2023-03-14T15:09:45;7.93;;;3.60;;
66175;SDS011;52977;44.816;20.538;2023-03-14T15:12:11;12.02;;;4.03;;
66175;SDS011;52977;44.816;20.538;2023-03-14T15:14:37;11.57;;;4.05;;
66175;SDS011;52977;44.816;20.538;2023-03-14T15:17:03;14.80;;;3.63;;
66175;SDS011;52977;44.816;20.538;2023-03-14T15:19:31;8.75;;;3.65;;
66175;SDS011;52977;44.816;20.538;2023-03-14T15:21:58;8.32;;;3.97;;
66175;SDS011;52977;44.816;20.538;2023-03-14T15:24:25;9.13;;;3.65;;
66175;SDS011;52977;44.816;20.538;2023-03-14T15:26:51;10.63;;;3.72;;
66175;SDS011;52977;44.816;20.538;2023-03-14T15:29:17;8.40;;;3.35;;
66175;SDS011;52977;44.816;20.538;2023-03-14T15:31:43;8.70;;;3.17;;
66175;SDS011;52977;44.816;20.538;2023-03-14T15:34:09;8.20;;;3.30;;
66175;SDS011;52977;44.816;20.538;2023-03-14T15:36:36;8.45;;;3.40;;
66175;SDS011;52977;44.816;20.538;2023-03-14T15:39:04;7.38;;;3.65;;
66175;SDS011;52977;44.816;20.538;2023-03-14T15:41:32;7.30;;;3.08;;
66175;SDS011;52977;44.816;20.538;2023-03-14T15:43:58;8.73;;;3.42;;
66175;SDS011;52977;44.816;20.538;2023-03-14T15:46:27;12.55;;;3.60;;
66175;SDS011;52977;44.816;20.538;2023-03-14T15:48:53;11.95;;;3.65;;
66175;SDS011;52977;44.816;20.538;2023-03-14T15:51:19;8.98;;;4.15;;
66175;SDS011;52977;44.816;20.538;2023-03-14T15:53:45;7.93;;;3.90;;
66175;SDS011;52977;44.816;20.538;2023-03-14T15:56:15;9.02;;;3.55;;